メインページ
METAR-TAF:

METAR-TAF

空港 :

ジュノー, アラスカ州, アメリカ合衆国

ジュノー国際空港

緯度: 58-21-17N, 経度: 134-34-34W, 海抜: 6m

現時点の気象観測

当レポートは42分前の21:53(UTC)に作成
東/南東の風 4kt
気温 13°C
湿度 100%
気圧 1013 hPa
視程: 8.0km
高度400ftの雲は散在している
高度800ftの千切れ雲あり
高度1500ftの曇り
小雨, 靄

METAR: PAJN 262153Z 11004KT 5SM R08/6000VP6000FT -RA BR SCT004 BKN008 OVC015 13/13 A2990 RMK AO2 SLP126 VIS LWR E-SE P0001 T01330133

時間: 14:35 (22:35 UTC)

予報

当レポートは2時間27分前の20:08(UTC)に作成
予報は26日の 20時(UTC)から 27日の 18時(UTC)まで有効
南西の風 5kt
視程: 9.7km
高度600ftの雲はほとんどない
高度1500ftの千切れ雲あり
高度3500ftの曇り
小雨, 靄
27日の 0000時(UTC)から
南東の風 5kt
視程: 10km
高度500ftの雲は散在している
高度2500ftの曇り
小雨
27日の 0400時(UTC)から
変向風 5kt
視程: 10km
高度2500ftの曇り
小雨
27日の 1000時(UTC)から
変向風 5kt
視程: 10km
高度2500ftの雲は散在している
高度3500ftの曇り
近辺でにわか雨

TAF: PAJN 262008Z 2620/2718 23005KT 6SM -RA BR FEW006 BKN015 OVC035 FM270000 14005KT P6SM -RA SCT005 OVC025 FM270400 VRB05KT P6SM -RA OVC025 FM271000 VRB05KT P6SM VCSH SCT025 OVC035

4,000以上の空港の気象観測と天気予報(METAR報とTAF報)

利用可能な観測所は地図上に黄色い丸と赤い丸で示す。

丸の上にカーソルを重ねると観測所名を参照できる。

次にクリックすると気象観測と天気予報を参照できる。

マップの切り替え:黒色「×」印の緑ボタンをクリックして拡大、「-」印の緑ボタンをクリックして縮小、緑色の三角印をクリックして隣りの地図に切り替え


METAR-TAF: